sensor_id;sensor_type;location;lat;lon;timestamp;temperature;humidity
27540;DHT22;15906;52.046;4.724;2024-03-08T00:00:34;4.10;99.90
27540;DHT22;15906;52.046;4.724;2024-03-08T00:03:00;4.10;99.90
27540;DHT22;15906;52.046;4.724;2024-03-08T00:05:27;4.10;99.90
27540;DHT22;15906;52.046;4.724;2024-03-08T00:07:53;4.00;99.90
27540;DHT22;15906;52.046;4.724;2024-03-08T00:10:18;4.10;99.90
27540;DHT22;15906;52.046;4.724;2024-03-08T00:12:46;4.00;99.90
27540;DHT22;15906;52.046;4.724;2024-03-08T00:15:16;4.00;99.90
27540;DHT22;15906;52.046;4.724;2024-03-08T00:17:42;4.00;99.90
27540;DHT22;15906;52.046;4.724;2024-03-08T00:20:08;4.00;99.90
27540;DHT22;15906;52.046;4.724;2024-03-08T00:22:37;4.00;99.90
27540;DHT22;15906;52.046;4.724;2024-03-08T00:25:04;4.00;99.90
27540;DHT22;15906;52.046;4.724;2024-03-08T00:27:30;3.90;99.90
27540;DHT22;15906;52.046;4.724;2024-03-08T00:29:59;3.90;99.90
27540;DHT22;15906;52.046;4.724;2024-03-08T00:32:24;3.90;99.90
27540;DHT22;15906;52.046;4.724;2024-03-08T00:34:50;3.90;99.90
27540;DHT22;15906;52.046;4.724;2024-03-08T00:37:20;3.90;99.90
27540;DHT22;15906;52.046;4.724;2024-03-08T00:39:48;3.90;99.90
27540;DHT22;15906;52.046;4.724;2024-03-08T00:42:14;3.90;99.90
27540;DHT22;15906;52.046;4.724;2024-03-08T00:44:40;3.90;99.90
27540;DHT22;15906;52.046;4.724;2024-03-08T00:47:06;3.80;99.90
27540;DHT22;15906;52.046;4.724;2024-03-08T00:49:31;3.80;99.90
27540;DHT22;15906;52.046;4.724;2024-03-08T00:51:57;3.80;99.90
27540;DHT22;15906;52.046;4.724;2024-03-08T00:54:23;3.70;99.90
27540;DHT22;15906;52.046;4.724;2024-03-08T00:56:48;3.70;99.90
27540;DHT22;15906;52.046;4.724;2024-03-08T00:59:14;3.80;99.90
27540;DHT22;15906;52.046;4.724;2024-03-08T01:01:40;3.70;99.90
27540;DHT22;15906;52.046;4.724;2024-03-08T01:04:06;3.70;99.90
27540;DHT22;15906;52.046;4.724;2024-03-08T01:06:33;3.80;99.90
27540;DHT22;15906;52.046;4.724;2024-03-08T01:08:59;3.70;99.90
27540;DHT22;15906;52.046;4.724;2024-03-08T01:11:24;3.60;99.90
27540;DHT22;15906;52.046;4.724;2024-03-08T01:13:50;3.60;99.90
27540;DHT22;15906;52.046;4.724;2024-03-08T01:16:16;3.50;99.90
27540;DHT22;15906;52.046;4.724;2024-03-08T01:18:43;3.60;99.90
27540;DHT22;15906;52.046;4.724;2024-03-08T01:21:08;3.60;99.90
27540;DHT22;15906;52.046;4.724;2024-03-08T01:23:34;3.60;99.90
27540;DHT22;15906;52.046;4.724;2024-03-08T01:26:00;3.50;99.90
27540;DHT22;15906;52.046;4.724;2024-03-08T01:28:27;3.50;99.90
27540;DHT22;15906;52.046;4.724;2024-03-08T01:30:53;3.50;99.90
27540;DHT22;15906;52.046;4.724;2024-03-08T01:33:23;3.60;99.90
27540;DHT22;15906;52.046;4.724;2024-03-08T01:35:53;3.50;99.90
27540;DHT22;15906;52.046;4.724;2024-03-08T01:38:20;3.50;99.90
27540;DHT22;15906;52.046;4.724;2024-03-08T01:40:49;3.50;99.90
27540;DHT22;15906;52.046;4.724;2024-03-08T01:43:22;3.40;99.90
27540;DHT22;15906;52.046;4.724;2024-03-08T01:45:48;3.40;99.90
27540;DHT22;15906;52.046;4.724;2024-03-08T01:48:17;3.40;99.90
27540;DHT22;15906;52.046;4.724;2024-03-08T01:50:45;3.40;99.90
27540;DHT22;15906;52.046;4.724;2024-03-08T01:53:11;3.40;99.90
27540;DHT22;15906;52.046;4.724;2024-03-08T01:55:38;3.30;99.90
27540;DHT22;15906;52.046;4.724;2024-03-08T01:58:09;3.20;99.90
27540;DHT22;15906;52.046;4.724;2024-03-08T02:00:35;3.30;99.90
27540;DHT22;15906;52.046;4.724;2024-03-08T02:03:02;3.30;99.90
27540;DHT22;15906;52.046;4.724;2024-03-08T02:05:28;3.30;99.90
27540;DHT22;15906;52.046;4.724;2024-03-08T02:07:54;3.20;99.90
27540;DHT22;15906;52.046;4.724;2024-03-08T02:10:19;3.30;99.90
27540;DHT22;15906;52.046;4.724;2024-03-08T02:12:46;3.20;99.90
27540;DHT22;15906;52.046;4.724;2024-03-08T02:15:12;3.20;99.90
27540;DHT22;15906;52.046;4.724;2024-03-08T02:17:38;3.20;99.90
27540;DHT22;15906;52.046;4.724;2024-03-08T02:20:04;3.20;99.90
27540;DHT22;15906;52.046;4.724;2024-03-08T02:22:30;3.10;99.90
27540;DHT22;15906;52.046;4.724;2024-03-08T02:24:58;3.10;99.90
27540;DHT22;15906;52.046;4.724;2024-03-08T02:27:27;3.00;99.90
27540;DHT22;15906;52.046;4.724;2024-03-08T02:29:57;3.10;99.90
27540;DHT22;15906;52.046;4.724;2024-03-08T02:32:23;3.10;99.90
27540;DHT22;15906;52.046;4.724;2024-03-08T02:34:49;3.00;99.90
27540;DHT22;15906;52.046;4.724;2024-03-08T02:37:15;3.00;99.90
27540;DHT22;15906;52.046;4.724;2024-03-08T02:39:41;3.00;99.90
27540;DHT22;15906;52.046;4.724;2024-03-08T02:42:07;2.90;99.90
27540;DHT22;15906;52.046;4.724;2024-03-08T02:44:33;2.90;99.90
27540;DHT22;15906;52.046;4.724;2024-03-08T02:47:01;2.90;99.90
27540;DHT22;15906;52.046;4.724;2024-03-08T02:49:26;2.90;99.90
27540;DHT22;15906;52.046;4.724;2024-03-08T02:51:53;2.80;99.90
27540;DHT22;15906;52.046;4.724;2024-03-08T02:54:19;2.80;99.90
27540;DHT22;15906;52.046;4.724;2024-03-08T02:56:46;2.90;99.90
27540;DHT22;15906;52.046;4.724;2024-03-08T02:59:16;2.80;99.90
27540;DHT22;15906;52.046;4.724;2024-03-08T03:01:43;2.80;99.90
27540;DHT22;15906;52.046;4.724;2024-03-08T03:04:08;2.80;99.90
27540;DHT22;15906;52.046;4.724;2024-03-08T03:06:34;2.80;99.90
27540;DHT22;15906;52.046;4.724;2024-03-08T03:08:59;2.80;99.90
27540;DHT22;15906;52.046;4.724;2024-03-08T03:11:25;2.80;99.90
27540;DHT22;15906;52.046;4.724;2024-03-08T03:13:50;2.80;99.90
27540;DHT22;15906;52.046;4.724;2024-03-08T03:16:19;2.80;99.90
27540;DHT22;15906;52.046;4.724;2024-03-08T03:18:45;2.70;99.90
27540;DHT22;15906;52.046;4.724;2024-03-08T03:21:12;2.70;99.90
27540;DHT22;15906;52.046;4.724;2024-03-08T03:23:41;2.70;99.90
27540;DHT22;15906;52.046;4.724;2024-03-08T03:26:10;2.70;99.90
27540;DHT22;15906;52.046;4.724;2024-03-08T03:28:39;2.70;99.90
27540;DHT22;15906;52.046;4.724;2024-03-08T03:31:06;2.70;99.90
27540;DHT22;15906;52.046;4.724;2024-03-08T03:33:32;2.60;99.90
27540;DHT22;15906;52.046;4.724;2024-03-08T03:36:00;2.60;99.90
27540;DHT22;15906;52.046;4.724;2024-03-08T03:38:26;2.60;99.90
27540;DHT22;15906;52.046;4.724;2024-03-08T03:40:53;2.60;99.90
27540;DHT22;15906;52.046;4.724;2024-03-08T03:43:23;2.60;99.90
27540;DHT22;15906;52.046;4.724;2024-03-08T03:45:48;2.60;99.90
27540;DHT22;15906;52.046;4.724;2024-03-08T03:48:14;2.50;99.90
27540;DHT22;15906;52.046;4.724;2024-03-08T03:50:40;2.50;99.90
27540;DHT22;15906;52.046;4.724;2024-03-08T03:53:05;2.50;99.90
27540;DHT22;15906;52.046;4.724;2024-03-08T03:55:35;2.50;99.90
27540;DHT22;15906;52.046;4.724;2024-03-08T03:58:02;2.50;99.90
27540;DHT22;15906;52.046;4.724;2024-03-08T04:00:28;2.50;99.90
27540;DHT22;15906;52.046;4.724;2024-03-08T04:02:54;2.40;99.90
27540;DHT22;15906;52.046;4.724;2024-03-08T04:05:20;2.40;99.90
27540;DHT22;15906;52.046;4.724;2024-03-08T04:07:46;2.40;99.90
27540;DHT22;15906;52.046;4.724;2024-03-08T04:10:11;2.40;99.90
27540;DHT22;15906;52.046;4.724;2024-03-08T04:12:37;2.30;99.90
27540;DHT22;15906;52.046;4.724;2024-03-08T04:15:04;2.30;99.90
27540;DHT22;15906;52.046;4.724;2024-03-08T04:17:33;2.30;99.90
27540;DHT22;15906;52.046;4.724;2024-03-08T04:20:01;2.20;99.90
27540;DHT22;15906;52.046;4.724;2024-03-08T04:22:30;2.20;99.90
27540;DHT22;15906;52.046;4.724;2024-03-08T04:24:55;2.20;99.90
27540;DHT22;15906;52.046;4.724;2024-03-08T04:27:21;2.20;99.90
27540;DHT22;15906;52.046;4.724;2024-03-08T04:29:46;2.20;99.90
27540;DHT22;15906;52.046;4.724;2024-03-08T04:32:12;2.20;99.90
27540;DHT22;15906;52.046;4.724;2024-03-08T04:34:38;2.20;99.90
27540;DHT22;15906;52.046;4.724;2024-03-08T04:37:04;2.20;99.90
27540;DHT22;15906;52.046;4.724;2024-03-08T04:39:30;2.10;99.90
27540;DHT22;15906;52.046;4.724;2024-03-08T04:42:02;2.10;99.90
27540;DHT22;15906;52.046;4.724;2024-03-08T04:44:36;2.20;99.90
27540;DHT22;15906;52.046;4.724;2024-03-08T04:47:05;2.10;99.90
27540;DHT22;15906;52.046;4.724;2024-03-08T04:49:32;2.10;99.90
27540;DHT22;15906;52.046;4.724;2024-03-08T04:52:03;2.10;99.90
27540;DHT22;15906;52.046;4.724;2024-03-08T04:54:29;2.10;99.90
27540;DHT22;15906;52.046;4.724;2024-03-08T04:56:54;2.10;99.90
27540;DHT22;15906;52.046;4.724;2024-03-08T04:59:20;2.10;99.90
27540;DHT22;15906;52.046;4.724;2024-03-08T05:01:46;2.10;99.90
27540;DHT22;15906;52.046;4.724;2024-03-08T05:04:13;2.00;99.90
27540;DHT22;15906;52.046;4.724;2024-03-08T05:06:38;2.00;99.90
27540;DHT22;15906;52.046;4.724;2024-03-08T05:09:04;2.00;99.90
27540;DHT22;15906;52.046;4.724;2024-03-08T05:11:45;2.00;99.90
27540;DHT22;15906;52.046;4.724;2024-03-08T05:14:12;1.90;99.90
27540;DHT22;15906;52.046;4.724;2024-03-08T05:16:42;1.90;99.90
27540;DHT22;15906;52.046;4.724;2024-03-08T05:19:08;1.90;99.90
27540;DHT22;15906;52.046;4.724;2024-03-08T05:21:33;1.90;99.90
27540;DHT22;15906;52.046;4.724;2024-03-08T05:23:59;1.90;99.90
27540;DHT22;15906;52.046;4.724;2024-03-08T05:26:25;1.90;99.90
27540;DHT22;15906;52.046;4.724;2024-03-08T05:28:50;1.80;99.90
27540;DHT22;15906;52.046;4.724;2024-03-08T05:31:22;1.90;99.90
27540;DHT22;15906;52.046;4.724;2024-03-08T05:33:49;1.90;99.90
27540;DHT22;15906;52.046;4.724;2024-03-08T05:36:14;1.80;99.90
27540;DHT22;15906;52.046;4.724;2024-03-08T05:38:42;1.90;99.90
27540;DHT22;15906;52.046;4.724;2024-03-08T05:41:09;1.90;99.90
27540;DHT22;15906;52.046;4.724;2024-03-08T05:43:34;1.90;99.90
27540;DHT22;15906;52.046;4.724;2024-03-08T05:46:00;1.80;99.90
27540;DHT22;15906;52.046;4.724;2024-03-08T05:48:25;1.80;99.90
27540;DHT22;15906;52.046;4.724;2024-03-08T05:50:51;1.80;99.90
27540;DHT22;15906;52.046;4.724;2024-03-08T05:53:17;1.80;99.90
27540;DHT22;15906;52.046;4.724;2024-03-08T05:55:42;1.80;99.90
27540;DHT22;15906;52.046;4.724;2024-03-08T05:58:08;1.80;99.90
27540;DHT22;15906;52.046;4.724;2024-03-08T06:00:34;1.80;99.90
27540;DHT22;15906;52.046;4.724;2024-03-08T06:03:01;1.70;99.90
27540;DHT22;15906;52.046;4.724;2024-03-08T06:05:28;1.70;99.90
27540;DHT22;15906;52.046;4.724;2024-03-08T06:07:53;1.80;99.90
27540;DHT22;15906;52.046;4.724;2024-03-08T06:10:19;1.70;99.90
27540;DHT22;15906;52.046;4.724;2024-03-08T06:12:44;1.70;99.90
27540;DHT22;15906;52.046;4.724;2024-03-08T06:15:10;1.70;99.90
27540;DHT22;15906;52.046;4.724;2024-03-08T06:17:42;1.70;99.90
27540;DHT22;15906;52.046;4.724;2024-03-08T06:20:08;1.70;99.90
27540;DHT22;15906;52.046;4.724;2024-03-08T06:22:38;1.70;99.90
27540;DHT22;15906;52.046;4.724;2024-03-08T06:25:06;1.70;99.90
27540;DHT22;15906;52.046;4.724;2024-03-08T06:27:32;1.70;99.90
27540;DHT22;15906;52.046;4.724;2024-03-08T06:29:59;1.70;99.90
27540;DHT22;15906;52.046;4.724;2024-03-08T06:32:25;1.70;99.90
27540;DHT22;15906;52.046;4.724;2024-03-08T06:34:51;1.70;99.90
27540;DHT22;15906;52.046;4.724;2024-03-08T06:37:16;1.70;99.90
27540;DHT22;15906;52.046;4.724;2024-03-08T06:39:50;1.70;99.90
27540;DHT22;15906;52.046;4.724;2024-03-08T06:42:17;1.80;99.90
27540;DHT22;15906;52.046;4.724;2024-03-08T06:44:42;1.70;99.90
27540;DHT22;15906;52.046;4.724;2024-03-08T06:47:15;1.80;99.90
27540;DHT22;15906;52.046;4.724;2024-03-08T06:49:42;1.80;99.90
27540;DHT22;15906;52.046;4.724;2024-03-08T06:52:09;1.80;99.90
27540;DHT22;15906;52.046;4.724;2024-03-08T06:54:35;1.80;99.90
27540;DHT22;15906;52.046;4.724;2024-03-08T06:57:04;1.90;99.90
27540;DHT22;15906;52.046;4.724;2024-03-08T06:59:30;1.80;99.90
27540;DHT22;15906;52.046;4.724;2024-03-08T07:01:56;1.80;99.90
27540;DHT22;15906;52.046;4.724;2024-03-08T07:04:22;1.80;99.90
27540;DHT22;15906;52.046;4.724;2024-03-08T07:06:51;1.80;99.90
27540;DHT22;15906;52.046;4.724;2024-03-08T07:09:17;1.90;99.90
27540;DHT22;15906;52.046;4.724;2024-03-08T07:11:43;2.00;99.90
27540;DHT22;15906;52.046;4.724;2024-03-08T07:14:08;2.10;99.90
27540;DHT22;15906;52.046;4.724;2024-03-08T07:16:34;2.00;99.90
27540;DHT22;15906;52.046;4.724;2024-03-08T07:19:03;2.10;99.90
27540;DHT22;15906;52.046;4.724;2024-03-08T07:21:30;2.10;99.90
27540;DHT22;15906;52.046;4.724;2024-03-08T07:23:56;2.10;99.90
27540;DHT22;15906;52.046;4.724;2024-03-08T07:26:24;2.10;99.90
27540;DHT22;15906;52.046;4.724;2024-03-08T07:28:50;2.10;99.90
27540;DHT22;15906;52.046;4.724;2024-03-08T07:31:15;2.20;99.90
27540;DHT22;15906;52.046;4.724;2024-03-08T07:34:00;2.20;99.90
27540;DHT22;15906;52.046;4.724;2024-03-08T07:36:25;2.30;99.90
27540;DHT22;15906;52.046;4.724;2024-03-08T07:38:51;2.30;99.90
27540;DHT22;15906;52.046;4.724;2024-03-08T07:41:16;2.40;99.90
27540;DHT22;15906;52.046;4.724;2024-03-08T07:43:42;2.40;99.90
27540;DHT22;15906;52.046;4.724;2024-03-08T07:46:09;2.40;99.90
27540;DHT22;15906;52.046;4.724;2024-03-08T07:48:36;2.40;99.90
27540;DHT22;15906;52.046;4.724;2024-03-08T07:51:02;2.50;99.90
27540;DHT22;15906;52.046;4.724;2024-03-08T07:53:28;2.50;99.90
27540;DHT22;15906;52.046;4.724;2024-03-08T07:55:54;2.60;99.90
27540;DHT22;15906;52.046;4.724;2024-03-08T07:58:19;2.70;99.90
27540;DHT22;15906;52.046;4.724;2024-03-08T08:00:45;2.80;99.90
27540;DHT22;15906;52.046;4.724;2024-03-08T08:03:11;2.80;99.90
27540;DHT22;15906;52.046;4.724;2024-03-08T08:05:38;2.80;99.90
27540;DHT22;15906;52.046;4.724;2024-03-08T08:08:05;2.90;99.90
27540;DHT22;15906;52.046;4.724;2024-03-08T08:10:32;3.00;99.90
27540;DHT22;15906;52.046;4.724;2024-03-08T08:12:58;3.00;99.90
27540;DHT22;15906;52.046;4.724;2024-03-08T08:15:23;3.10;99.90
27540;DHT22;15906;52.046;4.724;2024-03-08T08:17:49;3.10;99.90
27540;DHT22;15906;52.046;4.724;2024-03-08T08:20:15;3.20;99.90
27540;DHT22;15906;52.046;4.724;2024-03-08T08:22:41;3.30;99.90
27540;DHT22;15906;52.046;4.724;2024-03-08T08:25:07;3.40;99.90
27540;DHT22;15906;52.046;4.724;2024-03-08T08:27:33;3.40;99.90
27540;DHT22;15906;52.046;4.724;2024-03-08T08:29:59;3.50;99.90
27540;DHT22;15906;52.046;4.724;2024-03-08T08:32:24;3.50;99.90
27540;DHT22;15906;52.046;4.724;2024-03-08T08:34:50;3.60;99.90
27540;DHT22;15906;52.046;4.724;2024-03-08T08:37:16;3.70;99.90
27540;DHT22;15906;52.046;4.724;2024-03-08T08:39:42;3.80;99.90
27540;DHT22;15906;52.046;4.724;2024-03-08T08:42:07;3.90;99.90
27540;DHT22;15906;52.046;4.724;2024-03-08T08:44:35;4.00;99.90
27540;DHT22;15906;52.046;4.724;2024-03-08T08:47:01;4.20;99.90
27540;DHT22;15906;52.046;4.724;2024-03-08T08:49:26;4.50;99.90
27540;DHT22;15906;52.046;4.724;2024-03-08T08:51:52;4.80;99.90
27540;DHT22;15906;52.046;4.724;2024-03-08T08:54:18;5.00;99.90
27540;DHT22;15906;52.046;4.724;2024-03-08T08:56:44;5.30;99.90
27540;DHT22;15906;52.046;4.724;2024-03-08T08:59:10;5.60;99.90
27540;DHT22;15906;52.046;4.724;2024-03-08T09:01:39;5.60;99.90
27540;DHT22;15906;52.046;4.724;2024-03-08T09:04:05;5.80;99.90
27540;DHT22;15906;52.046;4.724;2024-03-08T09:06:31;6.00;99.90
27540;DHT22;15906;52.046;4.724;2024-03-08T09:08:57;6.30;99.90
27540;DHT22;15906;52.046;4.724;2024-03-08T09:11:23;6.40;99.90
27540;DHT22;15906;52.046;4.724;2024-03-08T09:13:50;6.50;99.90
27540;DHT22;15906;52.046;4.724;2024-03-08T09:16:16;6.90;99.90
27540;DHT22;15906;52.046;4.724;2024-03-08T09:18:41;6.90;99.90
27540;DHT22;15906;52.046;4.724;2024-03-08T09:21:07;6.90;99.90
27540;DHT22;15906;52.046;4.724;2024-03-08T09:23:35;7.00;99.90
27540;DHT22;15906;52.046;4.724;2024-03-08T09:26:01;7.10;99.90
27540;DHT22;15906;52.046;4.724;2024-03-08T09:28:28;7.10;99.90
27540;DHT22;15906;52.046;4.724;2024-03-08T09:30:54;7.10;99.90
27540;DHT22;15906;52.046;4.724;2024-03-08T09:33:20;7.10;99.90
27540;DHT22;15906;52.046;4.724;2024-03-08T09:35:46;7.20;99.90
27540;DHT22;15906;52.046;4.724;2024-03-08T09:38:16;7.50;99.90
27540;DHT22;15906;52.046;4.724;2024-03-08T09:40:42;7.60;99.90
27540;DHT22;15906;52.046;4.724;2024-03-08T09:43:08;7.80;99.90
27540;DHT22;15906;52.046;4.724;2024-03-08T09:45:36;7.90;99.90
27540;DHT22;15906;52.046;4.724;2024-03-08T09:48:13;8.20;99.90
27540;DHT22;15906;52.046;4.724;2024-03-08T09:50:42;8.10;99.90
27540;DHT22;15906;52.046;4.724;2024-03-08T09:53:08;8.00;99.90
27540;DHT22;15906;52.046;4.724;2024-03-08T09:55:38;8.20;99.90
27540;DHT22;15906;52.046;4.724;2024-03-08T09:58:08;8.30;99.90
27540;DHT22;15906;52.046;4.724;2024-03-08T10:00:58;8.30;99.90
27540;DHT22;15906;52.046;4.724;2024-03-08T10:03:24;8.50;99.90
27540;DHT22;15906;52.046;4.724;2024-03-08T10:05:53;8.40;99.90
27540;DHT22;15906;52.046;4.724;2024-03-08T10:08:23;8.70;99.90
27540;DHT22;15906;52.046;4.724;2024-03-08T10:10:51;8.90;99.90
27540;DHT22;15906;52.046;4.724;2024-03-08T10:13:16;9.00;99.90
27540;DHT22;15906;52.046;4.724;2024-03-08T10:15:45;8.80;99.90
27540;DHT22;15906;52.046;4.724;2024-03-08T10:18:10;8.90;99.90
27540;DHT22;15906;52.046;4.724;2024-03-08T10:20:36;9.10;99.90
27540;DHT22;15906;52.046;4.724;2024-03-08T10:23:03;9.20;99.90
27540;DHT22;15906;52.046;4.724;2024-03-08T10:25:34;9.20;99.90
27540;DHT22;15906;52.046;4.724;2024-03-08T10:28:00;9.20;99.90
27540;DHT22;15906;52.046;4.724;2024-03-08T10:30:25;9.20;99.90
27540;DHT22;15906;52.046;4.724;2024-03-08T10:32:51;9.20;99.90
27540;DHT22;15906;52.046;4.724;2024-03-08T10:35:17;9.30;99.90
27540;DHT22;15906;52.046;4.724;2024-03-08T10:37:49;9.40;99.90
27540;DHT22;15906;52.046;4.724;2024-03-08T10:40:19;9.30;99.90
27540;DHT22;15906;52.046;4.724;2024-03-08T10:42:53;9.30;99.90
27540;DHT22;15906;52.046;4.724;2024-03-08T10:45:38;9.20;99.90
27540;DHT22;15906;52.046;4.724;2024-03-08T10:48:27;9.30;99.90
27540;DHT22;15906;52.046;4.724;2024-03-08T10:50:53;9.40;99.90
27540;DHT22;15906;52.046;4.724;2024-03-08T10:53:20;9.50;99.90
27540;DHT22;15906;52.046;4.724;2024-03-08T10:55:50;9.90;99.90
27540;DHT22;15906;52.046;4.724;2024-03-08T10:58:23;9.90;99.90
27540;DHT22;15906;52.046;4.724;2024-03-08T11:00:55;9.70;99.90
27540;DHT22;15906;52.046;4.724;2024-03-08T11:08:54;9.80;99.90
27540;DHT22;15906;52.046;4.724;2024-03-08T11:11:31;9.90;99.90
27540;DHT22;15906;52.046;4.724;2024-03-08T11:13:58;9.90;99.90
27540;DHT22;15906;52.046;4.724;2024-03-08T11:21:36;10.20;99.60
27540;DHT22;15906;52.046;4.724;2024-03-08T11:24:10;10.30;99.30
27540;DHT22;15906;52.046;4.724;2024-03-08T11:26:40;10.30;99.50
27540;DHT22;15906;52.046;4.724;2024-03-08T11:29:32;10.40;99.90
27540;DHT22;15906;52.046;4.724;2024-03-08T11:32:17;10.40;98.40
27540;DHT22;15906;52.046;4.724;2024-03-08T11:34:46;10.60;99.10
27540;DHT22;15906;52.046;4.724;2024-03-08T11:37:16;10.50;98.90
27540;DHT22;15906;52.046;4.724;2024-03-08T11:39:55;10.40;97.80
27540;DHT22;15906;52.046;4.724;2024-03-08T11:42:25;10.50;98.40
27540;DHT22;15906;52.046;4.724;2024-03-08T11:44:54;10.60;98.70
27540;DHT22;15906;52.046;4.724;2024-03-08T11:47:20;10.80;99.10
27540;DHT22;15906;52.046;4.724;2024-03-08T11:49:46;11.00;99.40
27540;DHT22;15906;52.046;4.724;2024-03-08T11:52:15;11.00;98.30
27540;DHT22;15906;52.046;4.724;2024-03-08T11:54:41;10.90;97.80
27540;DHT22;15906;52.046;4.724;2024-03-08T11:57:08;11.00;98.30
27540;DHT22;15906;52.046;4.724;2024-03-08T11:59:35;11.00;97.00
27540;DHT22;15906;52.046;4.724;2024-03-08T12:02:05;11.20;97.90
27540;DHT22;15906;52.046;4.724;2024-03-08T12:04:32;11.00;96.10
27540;DHT22;15906;52.046;4.724;2024-03-08T12:07:00;10.70;97.40
27540;DHT22;15906;52.046;4.724;2024-03-08T12:09:28;10.80;97.50
27540;DHT22;15906;52.046;4.724;2024-03-08T12:11:54;10.80;97.30
27540;DHT22;15906;52.046;4.724;2024-03-08T12:14:20;10.90;98.20
27540;DHT22;15906;52.046;4.724;2024-03-08T12:16:46;11.00;98.30
27540;DHT22;15906;52.046;4.724;2024-03-08T12:19:12;10.70;96.60
27540;DHT22;15906;52.046;4.724;2024-03-08T12:21:38;10.80;98.00
27540;DHT22;15906;52.046;4.724;2024-03-08T12:24:10;10.90;98.30
27540;DHT22;15906;52.046;4.724;2024-03-08T12:26:38;10.80;97.70
27540;DHT22;15906;52.046;4.724;2024-03-08T12:29:18;10.50;98.60
27540;DHT22;15906;52.046;4.724;2024-03-08T12:31:46;10.50;98.30
27540;DHT22;15906;52.046;4.724;2024-03-08T12:34:12;10.80;98.50
27540;DHT22;15906;52.046;4.724;2024-03-08T12:36:45;10.70;97.50
27540;DHT22;15906;52.046;4.724;2024-03-08T12:39:13;10.70;98.80
27540;DHT22;15906;52.046;4.724;2024-03-08T12:41:41;10.50;98.40
27540;DHT22;15906;52.046;4.724;2024-03-08T12:44:07;10.70;98.80
27540;DHT22;15906;52.046;4.724;2024-03-08T12:46:37;10.50;98.30
27540;DHT22;15906;52.046;4.724;2024-03-08T12:49:07;10.70;99.40
27540;DHT22;15906;52.046;4.724;2024-03-08T12:51:32;10.80;99.20
27540;DHT22;15906;52.046;4.724;2024-03-08T12:53:58;10.60;99.00
27540;DHT22;15906;52.046;4.724;2024-03-08T12:56:32;10.70;98.50
27540;DHT22;15906;52.046;4.724;2024-03-08T12:58:59;10.70;98.40
27540;DHT22;15906;52.046;4.724;2024-03-08T13:01:25;10.70;98.60
27540;DHT22;15906;52.046;4.724;2024-03-08T13:03:52;10.80;99.50
27540;DHT22;15906;52.046;4.724;2024-03-08T13:06:18;11.10;99.40
27540;DHT22;15906;52.046;4.724;2024-03-08T13:08:47;11.10;99.30
27540;DHT22;15906;52.046;4.724;2024-03-08T13:11:13;11.00;97.80
27540;DHT22;15906;52.046;4.724;2024-03-08T13:13:43;10.80;98.90
27540;DHT22;15906;52.046;4.724;2024-03-08T13:16:09;10.60;98.70
27540;DHT22;15906;52.046;4.724;2024-03-08T13:18:36;10.70;98.00
27540;DHT22;15906;52.046;4.724;2024-03-08T13:21:02;10.60;98.70
27540;DHT22;15906;52.046;4.724;2024-03-08T13:23:33;10.50;99.20
27540;DHT22;15906;52.046;4.724;2024-03-08T13:25:59;10.60;99.30
27540;DHT22;15906;52.046;4.724;2024-03-08T13:28:25;10.70;99.20
27540;DHT22;15906;52.046;4.724;2024-03-08T13:30:55;10.60;98.70
27540;DHT22;15906;52.046;4.724;2024-03-08T13:33:23;10.80;98.70
27540;DHT22;15906;52.046;4.724;2024-03-08T13:35:49;10.90;99.90
27540;DHT22;15906;52.046;4.724;2024-03-08T13:38:16;11.00;99.40
27540;DHT22;15906;52.046;4.724;2024-03-08T13:40:45;11.00;98.60
27540;DHT22;15906;52.046;4.724;2024-03-08T13:43:12;10.80;98.60
27540;DHT22;15906;52.046;4.724;2024-03-08T13:45:38;10.70;98.60
27540;DHT22;15906;52.046;4.724;2024-03-08T13:48:04;10.60;99.10
27540;DHT22;15906;52.046;4.724;2024-03-08T13:50:30;10.60;98.80
27540;DHT22;15906;52.046;4.724;2024-03-08T13:52:56;10.60;99.00
27540;DHT22;15906;52.046;4.724;2024-03-08T13:55:22;10.60;99.90
27540;DHT22;15906;52.046;4.724;2024-03-08T13:57:48;10.70;98.90
27540;DHT22;15906;52.046;4.724;2024-03-08T14:00:14;10.60;98.60
27540;DHT22;15906;52.046;4.724;2024-03-08T14:02:40;10.50;99.00
27540;DHT22;15906;52.046;4.724;2024-03-08T14:05:09;10.30;99.60
27540;DHT22;15906;52.046;4.724;2024-03-08T14:07:37;10.30;99.40
27540;DHT22;15906;52.046;4.724;2024-03-08T14:10:03;10.30;99.80
27540;DHT22;15906;52.046;4.724;2024-03-08T14:12:28;10.20;99.30
27540;DHT22;15906;52.046;4.724;2024-03-08T14:14:55;10.20;98.90
27540;DHT22;15906;52.046;4.724;2024-03-08T14:17:23;10.10;99.90
27540;DHT22;15906;52.046;4.724;2024-03-08T14:19:48;10.20;99.90
27540;DHT22;15906;52.046;4.724;2024-03-08T14:22:15;10.10;99.60
27540;DHT22;15906;52.046;4.724;2024-03-08T14:24:41;10.20;99.90
27540;DHT22;15906;52.046;4.724;2024-03-08T14:27:08;10.10;99.90
27540;DHT22;15906;52.046;4.724;2024-03-08T14:29:35;10.00;99.60
27540;DHT22;15906;52.046;4.724;2024-03-08T14:32:01;10.00;99.90
27540;DHT22;15906;52.046;4.724;2024-03-08T14:34:28;9.90;99.90
27540;DHT22;15906;52.046;4.724;2024-03-08T14:36:55;9.90;99.90
27540;DHT22;15906;52.046;4.724;2024-03-08T14:39:21;9.90;99.90
27540;DHT22;15906;52.046;4.724;2024-03-08T14:41:50;10.00;99.50
27540;DHT22;15906;52.046;4.724;2024-03-08T14:44:19;9.90;99.90
27540;DHT22;15906;52.046;4.724;2024-03-08T14:46:45;9.80;99.90
27540;DHT22;15906;52.046;4.724;2024-03-08T14:49:11;9.90;99.90
27540;DHT22;15906;52.046;4.724;2024-03-08T14:51:37;9.80;99.90
27540;DHT22;15906;52.046;4.724;2024-03-08T14:54:02;9.70;99.90
27540;DHT22;15906;52.046;4.724;2024-03-08T14:56:34;9.70;99.90
27540;DHT22;15906;52.046;4.724;2024-03-08T14:59:00;9.70;99.90
27540;DHT22;15906;52.046;4.724;2024-03-08T15:01:26;9.60;99.90
27540;DHT22;15906;52.046;4.724;2024-03-08T15:03:55;9.60;99.90
27540;DHT22;15906;52.046;4.724;2024-03-08T15:06:21;9.60;99.90
27540;DHT22;15906;52.046;4.724;2024-03-08T15:08:47;9.50;99.90
27540;DHT22;15906;52.046;4.724;2024-03-08T15:11:13;9.70;99.90
27540;DHT22;15906;52.046;4.724;2024-03-08T15:13:47;9.70;99.90
27540;DHT22;15906;52.046;4.724;2024-03-08T15:16:16;9.70;99.90
27540;DHT22;15906;52.046;4.724;2024-03-08T15:18:43;9.60;99.90
27540;DHT22;15906;52.046;4.724;2024-03-08T15:21:12;9.50;99.90
27540;DHT22;15906;52.046;4.724;2024-03-08T15:23:43;9.60;99.90
27540;DHT22;15906;52.046;4.724;2024-03-08T15:26:13;9.50;99.90
27540;DHT22;15906;52.046;4.724;2024-03-08T15:28:38;9.60;99.90
27540;DHT22;15906;52.046;4.724;2024-03-08T15:31:05;9.50;99.90
27540;DHT22;15906;52.046;4.724;2024-03-08T15:33:35;9.50;99.90
27540;DHT22;15906;52.046;4.724;2024-03-08T15:36:16;9.60;99.90
27540;DHT22;15906;52.046;4.724;2024-03-08T15:38:43;9.60;99.90
27540;DHT22;15906;52.046;4.724;2024-03-08T15:41:16;9.70;99.90
27540;DHT22;15906;52.046;4.724;2024-03-08T15:43:43;9.60;99.90
27540;DHT22;15906;52.046;4.724;2024-03-08T15:46:10;9.60;99.90
27540;DHT22;15906;52.046;4.724;2024-03-08T15:48:37;9.60;99.90
27540;DHT22;15906;52.046;4.724;2024-03-08T15:51:04;9.60;99.90
27540;DHT22;15906;52.046;4.724;2024-03-08T15:53:35;9.50;99.90